createdAt,value
2022-08-14T00:01:24.584Z,980.4
2022-08-14T00:15:50.556Z,980.3
2022-08-14T00:30:19.257Z,980.2
2022-08-14T00:44:45.295Z,980.1
2022-08-14T00:59:16.426Z,979.9
2022-08-14T01:13:43.595Z,979.7
2022-08-14T01:28:56.107Z,979.5
2022-08-14T01:43:03.086Z,979.4
2022-08-14T01:58:21.039Z,979.1
2022-08-14T02:12:37.607Z,978.8
2022-08-14T02:28:59.803Z,978.6
2022-08-14T02:42:58.089Z,978.5
2022-08-14T02:57:41.241Z,978.5
2022-08-14T03:11:57.128Z,978.4
2022-08-14T03:26:31.062Z,978.5
2022-08-14T03:40:55.952Z,978.4
2022-08-14T03:55:21.316Z,978.5
2022-08-14T04:09:53.051Z,978.5
2022-08-14T04:24:19.663Z,978.4
2022-08-14T04:38:47.428Z,978.3
2022-08-14T04:53:14.940Z,978.2
2022-08-14T05:08:01.953Z,978.2
2022-08-14T05:22:22.848Z,978.2
2022-08-14T05:37:03.568Z,978
2022-08-14T05:51:25.570Z,978.1
2022-08-14T06:05:53.930Z,978
2022-08-14T06:20:23.389Z,977.9
2022-08-14T06:35:13.869Z,977.8
2022-08-14T06:49:45.291Z,977.9
2022-08-14T07:04:24.673Z,977.8
2022-08-14T07:18:51.021Z,977.7
2022-08-14T07:33:30.304Z,977.5
2022-08-14T07:47:57.616Z,977.2
2022-08-14T08:02:35.099Z,977.2
2022-08-14T08:17:09.158Z,977.1
2022-08-14T08:31:38.719Z,977.1
2022-08-14T08:46:24.251Z,977.2
2022-08-14T09:00:43.477Z,977.1
2022-08-14T09:15:13.131Z,976.9
2022-08-14T09:29:38.114Z,976.9
2022-08-14T09:43:56.645Z,976.6
2022-08-14T09:58:24.989Z,976.4
2022-08-14T10:12:58.500Z,976.2
2022-08-14T10:27:20.713Z,976.2
2022-08-14T10:41:54.292Z,976.1
2022-08-14T10:56:35.333Z,975.8
2022-08-14T11:10:48.917Z,975.7
2022-08-14T11:25:19.835Z,975.6
2022-08-14T11:39:45.919Z,975.6
2022-08-14T11:54:08.656Z,975.6
2022-08-14T12:08:32.994Z,975.4
2022-08-14T12:23:00.906Z,975.2
2022-08-14T12:37:40.256Z,975
2022-08-14T12:52:17.685Z,974.7
2022-08-14T13:07:01.097Z,974.5
2022-08-14T13:21:59.191Z,974.3
2022-08-14T13:37:04.469Z,973.9
2022-08-14T13:51:15.908Z,973.9
2022-08-14T14:05:55.312Z,973.7
2022-08-14T14:20:36.534Z,973.6
2022-08-14T14:34:53.133Z,973.4
2022-08-14T14:49:16.474Z,973.4
2022-08-14T15:03:56.629Z,973.4
2022-08-14T15:18:49.381Z,973.2
2022-08-14T15:33:04.985Z,973.1
2022-08-14T15:47:43.197Z,973
2022-08-14T16:02:04.210Z,973
2022-08-14T16:17:01.127Z,972.9
2022-08-14T16:31:14.903Z,972.9
2022-08-14T16:45:44.436Z,972.8
2022-08-14T17:00:28.991Z,972.6
2022-08-14T17:14:44.174Z,972.5
2022-08-14T17:29:10.484Z,972.4
2022-08-14T17:43:42.992Z,972.5
2022-08-14T17:58:22.670Z,972.5
2022-08-14T18:12:44.999Z,972.5
2022-08-14T18:27:09.987Z,972.4
2022-08-14T18:41:38.268Z,972.5
2022-08-14T18:56:10.554Z,972.5
2022-08-14T19:10:37.909Z,972.6
2022-08-14T19:25:05.949Z,972.6
2022-08-14T19:39:39.590Z,972.6
2022-08-14T19:54:04.614Z,972.6
2022-08-14T20:12:03.165Z,972.7
2022-08-14T20:26:36.966Z,972.7
2022-08-14T20:40:50.962Z,972.6
2022-08-14T20:55:14.315Z,972.5
2022-08-14T21:10:43.939Z,972.6
2022-08-14T21:24:48.079Z,972.7
2022-08-14T21:39:12.725Z,972.6
2022-08-14T21:54:00.440Z,972.5
2022-08-14T22:08:17.177Z,972.4
2022-08-14T22:22:42.904Z,972.2
2022-08-14T22:37:10.646Z,972.2
2022-08-14T22:51:49.366Z,972.2
2022-08-14T23:07:05.304Z,972.2
2022-08-14T23:21:25.392Z,972
2022-08-14T23:36:00.253Z,971.9
2022-08-14T23:50:38.844Z,971.9
